Decoded Metar for KMHL ( in ) (IATA:) | Meteo·Mobile Aviation Weather
aviador You're here:

KMHL Decoded Metar

in
Report Time2020-02-18 21:15:00
UTC Time2020-02-18 21:11:21
Flight Rules vfr VFR
Wind290° at 07 kt
W.Decomp.*RWY 27: 6.6 kt HW 2.4 kt RCW
RWY 36: 2.4 kt HW 6.6 kt LCW
Visibility9999 m
Phenomena:N/A
Clouds:N/A
Expected CloudBase > 2,000 ft AGL from Temp-Dew spread
CeilingNone
Temp03°C
Dew Point-2°C (70% RH)
AAT-1.8°C
QNH1027 hPa
Raw Report
KMHL 182115Z AUTO 29007KT 10SM CLR 03/M02 A3034 RMK AO2 TSNO
PWINO=

Extra information for KMHL:More info

Social comments